Terminal Aerodrome Forecast
Issued by NWS Wilmington, OH

Home | Current Version | Previous Version | Text Only | Print | Product List | Glossary On
Versions: 1 2 3 4 5 6 7 8 9 10 11 12 13 14 15 16
250
FTUS41 KILN 281732
TAFILN
TAF
KILN 281732Z 2818/2918 19011KT P6SM BKN200
     FM290600 18007KT P6SM FEW250 WS020/22035KT
     FM291300 20011KT P6SM FEW150
     FM291500 22016G26KT P6SM FEW050 SCT150=

USA.gov is the U.S. government's official web portal to all federal, state and local government web resources and services.